Terminal Aerodrome Forecast
Issued by NWS

Home | Current Version | Previous Version | Text Only | Print | Product List | Glossary On
Versions: 1 2 3 4 5 6 7 8 9 10 11 12 13 14 15 16 17 18 19 20 21 22 23 24 25 26 27
000
FTUS46 KOTX 021737
TAFSFF
TAF
KSFF 021737Z 0218/0318 VRB02KT P6SM VCSH BKN060 BKN100
     FM022000 33007KT P6SM VCSH BKN050 OVC090
     FM022300 33009KT P6SM -SHSN SCT025 BKN050 BKN090
     FM030300 01010G15KT P6SM SCT025 BKN100
     FM030600 03005KT P6SM FEW250=

USA.gov is the U.S. government's official web portal to all federal, state and local government web resources and services.